Tuesday, February 28, 2017 (00:58 UTC)
OPMET DATA 
Terminal Aerodrome Forecast (TAF) and METAR
TAFs are issued by Aviation Meteorological Office, for Abu Dhabi (OMAA), Bateen (OMAD), Al Ain (OMAL), Dubai (OMDB), Al Maktoum (OMDW), Sharjah (OMSJ), Ras Al Khaimah (OMRK) and Fujairah (OMFJ) airports. These TAFs are issued every 6 hours and are valid for a 30 hour period. METARs (Aviation Routine Weather Reports) are updated hourly.
Show ICAO codes
Select OPMET type:        SEARCH   PRINT
Aviation Meteorology - National Center of Meteorology & Seismology (NCMS)
Telephone: +971 2 5757346 / 5053676
Email: metweb@adiamet.gov.ae
Website: www.avmet.ae
METAR OMAA 280000Z 18003KT 140V210 8000 SCT025 16/12 Q1017 NOSIG=
METAR OMAD 280000Z 00000KT 8000 SCT025 17/14 Q1017 BECMG 5000 HZ=
METAR OMAL 280000Z 02004KT 7000 NSC 13/11 Q1018 BECMG 5000 HZ=
METAR OMDB 280000Z 18003KT 130V240 CAVOK 17/12 Q1018 NOSIG=
METAR OMDW 280000Z 16004KT 8000 NSC 14/11 Q1018 NOSIG=
METAR OMFJ 280000Z 28012KT CAVOK 18/12 Q1016 RMK A3002=
METAR OMSJ 280000Z 17003KT CAVOK 15/12 Q1018=
METAR OMRK 280000Z 20003KT 2500 BR NSC 13/13 Q1018 A3006=
METAR OTBD 280000Z VRB02KT CAVOK 15/11 Q1018 NOSIG=
METAR OTHH 280000Z AUTO VRB01KT CAVOK 14/09 Q1018 NOSIG=
METAR OBBI 280000Z 23006KT 200V260 CAVOK 16/12 Q1018 NOSIG=
METAR OEDF 280000Z 23006KT CAVOK 11/05 Q1019 NOSIG=
METAR OEDR 280000Z 30005KT CAVOK 10/06 Q1017 NOSIG=
METAR OEJN 280000Z 00000KT CAVOK 26/12 Q1009 NOSIG=
METAR OEMA 280000Z 10007KT CAVOK 22/06 Q1016 NOSIG=
METAR OEPA 280000Z 00000KT CAVOK 10/05 Q1019 NOSIG=
METAR OERF 280000Z 00000KT CAVOK 07/M13 Q1018=
METAR OERK 280000Z 00000KT CAVOK 10/01 Q1020 NOSIG=
METAR OERR 280000Z 19006KT CAVOK 10/M05 Q1018 NOSIG=
METAR OERY NIL=
METAR OESH 280000Z 06007KT CAVOK 15/01 Q1018 NOSIG=
METAR OETB 280000Z 14006KT CAVOK 14/M03 Q1014 NOSIG=
METAR OETF 280000Z 12005KT 6000 SKC 13/09 Q1018 NOSIG=
METAR OETR 280000Z 11008KT CAVOK 10/M10 Q1018 NOSIG=
METAR OEWD 280000Z 10012KT CAVOK 16/08 Q1018 NOSIG=
METAR OEWJ 280000Z 02003KT CAVOK 23/07 Q1010 NOSIG=
METAR OEYN 280000Z 08006KT CAVOK 21/11 Q1008 NOSIG=
METAR OKBK 280000Z 20005KT CAVOK 10/M04 Q1018 NOSIG=
METAR OOMS 272350Z 29004KT CAVOK 21/17 Q1015 NOSIG=
METAR OOSA 272350Z 03009KT 360V060 CAVOK 25/09 Q1014 WS R07 NOSIG=
METAR OYSN NIL=
METAR OYAA NIL=
 
Tuesday, February 28, 2017 (00:58 UTC)